sensor_id;sensor_type;location;lat;lon;timestamp;P1;durP1;ratioP1;P2;durP2;ratioP2
34876;SDS011;21086;44.780;17.194;2022-10-16T00:01:39;28.33;;;20.88;;
34876;SDS011;21086;44.780;17.194;2022-10-16T00:04:06;26.38;;;18.75;;
34876;SDS011;21086;44.780;17.194;2022-10-16T00:06:33;28.10;;;20.88;;
34876;SDS011;21086;44.780;17.194;2022-10-16T00:09:01;31.75;;;22.10;;
34876;SDS011;21086;44.780;17.194;2022-10-16T00:11:30;31.65;;;21.52;;
34876;SDS011;21086;44.780;17.194;2022-10-16T00:14:03;26.40;;;20.67;;
34876;SDS011;21086;44.780;17.194;2022-10-16T00:16:33;22.63;;;17.17;;
34876;SDS011;21086;44.780;17.194;2022-10-16T00:19:00;29.90;;;23.48;;
34876;SDS011;21086;44.780;17.194;2022-10-16T00:21:28;23.23;;;19.27;;
34876;SDS011;21086;44.780;17.194;2022-10-16T00:23:57;31.27;;;22.70;;
34876;SDS011;21086;44.780;17.194;2022-10-16T00:26:32;23.95;;;19.55;;
34876;SDS011;21086;44.780;17.194;2022-10-16T00:29:01;23.67;;;19.30;;
34876;SDS011;21086;44.780;17.194;2022-10-16T00:31:29;30.73;;;23.60;;
34876;SDS011;21086;44.780;17.194;2022-10-16T00:33:56;25.77;;;21.33;;
34876;SDS011;21086;44.780;17.194;2022-10-16T00:36:24;28.92;;;20.98;;
34876;SDS011;21086;44.780;17.194;2022-10-16T00:38:53;29.88;;;21.77;;
34876;SDS011;21086;44.780;17.194;2022-10-16T00:41:22;31.38;;;21.80;;
34876;SDS011;21086;44.780;17.194;2022-10-16T00:43:51;26.15;;;20.88;;
34876;SDS011;21086;44.780;17.194;2022-10-16T00:46:39;27.13;;;19.70;;
34876;SDS011;21086;44.780;17.194;2022-10-16T00:51:37;23.63;;;18.45;;
34876;SDS011;21086;44.780;17.194;2022-10-16T00:54:24;24.58;;;19.90;;
34876;SDS011;21086;44.780;17.194;2022-10-16T00:56:54;25.25;;;19.10;;
34876;SDS011;21086;44.780;17.194;2022-10-16T00:59:24;28.02;;;19.45;;
34876;SDS011;21086;44.780;17.194;2022-10-16T01:01:53;29.52;;;20.67;;
34876;SDS011;21086;44.780;17.194;2022-10-16T01:04:21;26.58;;;18.73;;
34876;SDS011;21086;44.780;17.194;2022-10-16T01:09:37;23.05;;;18.17;;
34876;SDS011;21086;44.780;17.194;2022-10-16T01:12:10;25.35;;;18.95;;
34876;SDS011;21086;44.780;17.194;2022-10-16T01:14:48;22.95;;;17.33;;
34876;SDS011;21086;44.780;17.194;2022-10-16T01:17:19;26.10;;;18.83;;
34876;SDS011;21086;44.780;17.194;2022-10-16T01:22:38;27.05;;;18.40;;
34876;SDS011;21086;44.780;17.194;2022-10-16T01:25:08;26.75;;;19.15;;
34876;SDS011;21086;44.780;17.194;2022-10-16T01:27:43;26.98;;;19.75;;
34876;SDS011;21086;44.780;17.194;2022-10-16T01:30:31;23.15;;;17.95;;
34876;SDS011;21086;44.780;17.194;2022-10-16T01:33:05;24.30;;;17.33;;
34876;SDS011;21086;44.780;17.194;2022-10-16T01:35:44;27.92;;;20.67;;
34876;SDS011;21086;44.780;17.194;2022-10-16T01:41:07;23.40;;;17.30;;
34876;SDS011;21086;44.780;17.194;2022-10-16T01:43:46;25.35;;;17.35;;
34876;SDS011;21086;44.780;17.194;2022-10-16T01:46:18;31.42;;;20.90;;
34876;SDS011;21086;44.780;17.194;2022-10-16T01:48:48;29.75;;;20.23;;
34876;SDS011;21086;44.780;17.194;2022-10-16T01:51:18;22.67;;;17.50;;
34876;SDS011;21086;44.780;17.194;2022-10-16T01:53:48;25.50;;;18.42;;
34876;SDS011;21086;44.780;17.194;2022-10-16T01:56:19;25.10;;;18.55;;
34876;SDS011;21086;44.780;17.194;2022-10-16T01:58:53;24.98;;;19.10;;
34876;SDS011;21086;44.780;17.194;2022-10-16T02:01:24;28.83;;;19.55;;
34876;SDS011;21086;44.780;17.194;2022-10-16T02:03:56;31.70;;;18.73;;
34876;SDS011;21086;44.780;17.194;2022-10-16T02:06:28;23.80;;;16.63;;
34876;SDS011;21086;44.780;17.194;2022-10-16T02:08:56;20.33;;;15.30;;
34876;SDS011;21086;44.780;17.194;2022-10-16T02:11:23;23.52;;;17.42;;
34876;SDS011;21086;44.780;17.194;2022-10-16T02:13:52;23.67;;;16.10;;
34876;SDS011;21086;44.780;17.194;2022-10-16T02:16:36;18.10;;;14.20;;
34876;SDS011;21086;44.780;17.194;2022-10-16T02:19:05;16.92;;;14.85;;
34876;SDS011;21086;44.780;17.194;2022-10-16T02:24:31;21.13;;;15.35;;
34876;SDS011;21086;44.780;17.194;2022-10-16T02:29:32;18.63;;;14.93;;
34876;SDS011;21086;44.780;17.194;2022-10-16T02:32:05;17.30;;;14.05;;
34876;SDS011;21086;44.780;17.194;2022-10-16T02:34:33;20.30;;;16.17;;
34876;SDS011;21086;44.780;17.194;2022-10-16T02:37:01;22.77;;;16.83;;
34876;SDS011;21086;44.780;17.194;2022-10-16T02:39:30;24.90;;;16.80;;
34876;SDS011;21086;44.780;17.194;2022-10-16T02:41:58;19.85;;;15.07;;
34876;SDS011;21086;44.780;17.194;2022-10-16T02:44:25;22.20;;;15.85;;
34876;SDS011;21086;44.780;17.194;2022-10-16T02:46:52;21.73;;;17.40;;
34876;SDS011;21086;44.780;17.194;2022-10-16T02:49:19;24.05;;;17.95;;
34876;SDS011;21086;44.780;17.194;2022-10-16T02:51:46;19.10;;;15.98;;
34876;SDS011;21086;44.780;17.194;2022-10-16T02:54:13;24.50;;;17.00;;
34876;SDS011;21086;44.780;17.194;2022-10-16T02:56:40;18.65;;;14.77;;
34876;SDS011;21086;44.780;17.194;2022-10-16T02:59:07;21.55;;;16.08;;
34876;SDS011;21086;44.780;17.194;2022-10-16T03:01:35;18.58;;;15.10;;
34876;SDS011;21086;44.780;17.194;2022-10-16T03:04:02;22.25;;;17.17;;
34876;SDS011;21086;44.780;17.194;2022-10-16T03:06:29;19.55;;;14.95;;
34876;SDS011;21086;44.780;17.194;2022-10-16T03:08:57;20.65;;;15.32;;
34876;SDS011;21086;44.780;17.194;2022-10-16T03:11:24;15.23;;;13.52;;
34876;SDS011;21086;44.780;17.194;2022-10-16T03:13:51;16.67;;;13.13;;
34876;SDS011;21086;44.780;17.194;2022-10-16T03:16:18;15.82;;;13.77;;
34876;SDS011;21086;44.780;17.194;2022-10-16T03:18:47;16.75;;;13.00;;
34876;SDS011;21086;44.780;17.194;2022-10-16T03:21:16;20.38;;;13.75;;
34876;SDS011;21086;44.780;17.194;2022-10-16T03:23:43;16.65;;;12.65;;
34876;SDS011;21086;44.780;17.194;2022-10-16T03:26:11;17.50;;;14.02;;
34876;SDS011;21086;44.780;17.194;2022-10-16T03:28:38;18.83;;;13.02;;
34876;SDS011;21086;44.780;17.194;2022-10-16T03:31:05;20.92;;;14.45;;
34876;SDS011;21086;44.780;17.194;2022-10-16T03:33:32;20.50;;;15.10;;
34876;SDS011;21086;44.780;17.194;2022-10-16T03:35:59;21.00;;;14.25;;
34876;SDS011;21086;44.780;17.194;2022-10-16T03:38:26;16.85;;;13.63;;
34876;SDS011;21086;44.780;17.194;2022-10-16T03:40:53;17.50;;;12.85;;
34876;SDS011;21086;44.780;17.194;2022-10-16T03:43:19;20.15;;;13.65;;
34876;SDS011;21086;44.780;17.194;2022-10-16T03:45:46;19.30;;;12.90;;
34876;SDS011;21086;44.780;17.194;2022-10-16T03:48:13;17.63;;;11.90;;
34876;SDS011;21086;44.780;17.194;2022-10-16T03:50:40;16.17;;;10.85;;
34876;SDS011;21086;44.780;17.194;2022-10-16T03:53:07;17.63;;;12.73;;
34876;SDS011;21086;44.780;17.194;2022-10-16T03:55:34;14.05;;;11.70;;
34876;SDS011;21086;44.780;17.194;2022-10-16T03:58:01;14.25;;;11.48;;
34876;SDS011;21086;44.780;17.194;2022-10-16T04:00:28;18.52;;;12.65;;
34876;SDS011;21086;44.780;17.194;2022-10-16T04:02:55;12.88;;;10.95;;
34876;SDS011;21086;44.780;17.194;2022-10-16T04:05:22;14.50;;;12.13;;
34876;SDS011;21086;44.780;17.194;2022-10-16T04:07:49;14.45;;;12.32;;
34876;SDS011;21086;44.780;17.194;2022-10-16T04:10:16;20.33;;;12.40;;
34876;SDS011;21086;44.780;17.194;2022-10-16T04:12:43;17.02;;;11.70;;
34876;SDS011;21086;44.780;17.194;2022-10-16T04:15:10;14.85;;;12.45;;
34876;SDS011;21086;44.780;17.194;2022-10-16T04:17:37;15.40;;;12.23;;
34876;SDS011;21086;44.780;17.194;2022-10-16T04:20:04;13.40;;;10.88;;
34876;SDS011;21086;44.780;17.194;2022-10-16T04:22:32;15.93;;;12.45;;
34876;SDS011;21086;44.780;17.194;2022-10-16T04:24:59;18.85;;;12.73;;
34876;SDS011;21086;44.780;17.194;2022-10-16T04:27:25;15.88;;;12.38;;
34876;SDS011;21086;44.780;17.194;2022-10-16T04:29:53;19.27;;;14.93;;
34876;SDS011;21086;44.780;17.194;2022-10-16T04:32:20;16.20;;;12.05;;
34876;SDS011;21086;44.780;17.194;2022-10-16T04:34:47;17.17;;;13.73;;
34876;SDS011;21086;44.780;17.194;2022-10-16T04:37:14;13.80;;;11.68;;
34876;SDS011;21086;44.780;17.194;2022-10-16T04:39:40;19.92;;;12.77;;
34876;SDS011;21086;44.780;17.194;2022-10-16T04:42:08;16.30;;;12.27;;
34876;SDS011;21086;44.780;17.194;2022-10-16T04:44:34;15.43;;;12.00;;
34876;SDS011;21086;44.780;17.194;2022-10-16T04:47:01;13.02;;;11.18;;
34876;SDS011;21086;44.780;17.194;2022-10-16T04:49:28;16.10;;;13.25;;
34876;SDS011;21086;44.780;17.194;2022-10-16T04:51:55;16.25;;;11.98;;
34876;SDS011;21086;44.780;17.194;2022-10-16T04:54:22;18.48;;;10.55;;
34876;SDS011;21086;44.780;17.194;2022-10-16T04:56:49;13.73;;;10.82;;
34876;SDS011;21086;44.780;17.194;2022-10-16T04:59:18;17.13;;;11.55;;
34876;SDS011;21086;44.780;17.194;2022-10-16T05:01:46;13.73;;;11.05;;
34876;SDS011;21086;44.780;17.194;2022-10-16T05:04:13;18.40;;;12.02;;
34876;SDS011;21086;44.780;17.194;2022-10-16T05:06:41;17.17;;;12.98;;
34876;SDS011;21086;44.780;17.194;2022-10-16T05:09:09;18.00;;;12.43;;
34876;SDS011;21086;44.780;17.194;2022-10-16T05:11:36;15.60;;;12.07;;
34876;SDS011;21086;44.780;17.194;2022-10-16T05:14:03;14.27;;;11.50;;
34876;SDS011;21086;44.780;17.194;2022-10-16T05:16:30;17.55;;;11.27;;
34876;SDS011;21086;44.780;17.194;2022-10-16T05:18:57;26.58;;;17.35;;
34876;SDS011;21086;44.780;17.194;2022-10-16T05:21:44;21.58;;;14.35;;
34876;SDS011;21086;44.780;17.194;2022-10-16T05:24:11;24.75;;;13.75;;
34876;SDS011;21086;44.780;17.194;2022-10-16T05:26:39;19.02;;;13.40;;
34876;SDS011;21086;44.780;17.194;2022-10-16T05:29:06;21.80;;;15.75;;
34876;SDS011;21086;44.780;17.194;2022-10-16T05:31:33;17.05;;;13.43;;
34876;SDS011;21086;44.780;17.194;2022-10-16T05:34:01;23.08;;;15.55;;
34876;SDS011;21086;44.780;17.194;2022-10-16T05:36:29;22.02;;;16.08;;
34876;SDS011;21086;44.780;17.194;2022-10-16T05:38:56;23.42;;;17.48;;
34876;SDS011;21086;44.780;17.194;2022-10-16T05:41:23;22.48;;;17.02;;
34876;SDS011;21086;44.780;17.194;2022-10-16T05:43:52;19.88;;;16.42;;
34876;SDS011;21086;44.780;17.194;2022-10-16T05:46:20;18.95;;;15.30;;
34876;SDS011;21086;44.780;17.194;2022-10-16T05:48:48;22.38;;;15.60;;
34876;SDS011;21086;44.780;17.194;2022-10-16T05:51:18;18.40;;;14.43;;
34876;SDS011;21086;44.780;17.194;2022-10-16T05:53:45;21.30;;;15.00;;
34876;SDS011;21086;44.780;17.194;2022-10-16T05:56:13;20.20;;;15.73;;
34876;SDS011;21086;44.780;17.194;2022-10-16T05:58:40;20.27;;;14.10;;
34876;SDS011;21086;44.780;17.194;2022-10-16T06:01:13;16.58;;;13.68;;
34876;SDS011;21086;44.780;17.194;2022-10-16T06:03:43;19.25;;;13.35;;
34876;SDS011;21086;44.780;17.194;2022-10-16T06:06:11;21.75;;;14.63;;
34876;SDS011;21086;44.780;17.194;2022-10-16T06:08:41;21.48;;;14.65;;
34876;SDS011;21086;44.780;17.194;2022-10-16T06:11:11;30.55;;;21.40;;
34876;SDS011;21086;44.780;17.194;2022-10-16T06:13:42;22.00;;;13.75;;
34876;SDS011;21086;44.780;17.194;2022-10-16T06:16:12;18.45;;;13.23;;
34876;SDS011;21086;44.780;17.194;2022-10-16T06:18:39;18.90;;;13.07;;
34876;SDS011;21086;44.780;17.194;2022-10-16T06:21:07;17.75;;;13.23;;
34876;SDS011;21086;44.780;17.194;2022-10-16T06:23:36;19.27;;;14.85;;
34876;SDS011;21086;44.780;17.194;2022-10-16T06:26:04;21.10;;;15.13;;
34876;SDS011;21086;44.780;17.194;2022-10-16T06:28:36;21.92;;;15.98;;
34876;SDS011;21086;44.780;17.194;2022-10-16T06:31:04;21.42;;;15.52;;
34876;SDS011;21086;44.780;17.194;2022-10-16T06:33:34;27.98;;;18.75;;
34876;SDS011;21086;44.780;17.194;2022-10-16T06:38:35;40.80;;;25.60;;
34876;SDS011;21086;44.780;17.194;2022-10-16T06:41:04;34.03;;;21.60;;
34876;SDS011;21086;44.780;17.194;2022-10-16T06:43:32;35.20;;;22.98;;
34876;SDS011;21086;44.780;17.194;2022-10-16T06:46:02;31.30;;;21.13;;
34876;SDS011;21086;44.780;17.194;2022-10-16T06:48:30;24.80;;;16.65;;
34876;SDS011;21086;44.780;17.194;2022-10-16T06:50:59;25.95;;;18.80;;
34876;SDS011;21086;44.780;17.194;2022-10-16T06:58:41;23.98;;;16.98;;
34876;SDS011;21086;44.780;17.194;2022-10-16T07:01:10;24.52;;;16.98;;
34876;SDS011;21086;44.780;17.194;2022-10-16T07:03:37;20.02;;;14.85;;
34876;SDS011;21086;44.780;17.194;2022-10-16T07:06:06;20.27;;;14.85;;
34876;SDS011;21086;44.780;17.194;2022-10-16T07:08:36;20.50;;;14.55;;
34876;SDS011;21086;44.780;17.194;2022-10-16T07:11:08;22.08;;;14.55;;
34876;SDS011;21086;44.780;17.194;2022-10-16T07:13:41;18.77;;;12.73;;
34876;SDS011;21086;44.780;17.194;2022-10-16T07:16:13;16.70;;;13.07;;
34876;SDS011;21086;44.780;17.194;2022-10-16T07:18:45;17.45;;;12.98;;
34876;SDS011;21086;44.780;17.194;2022-10-16T07:23:43;20.70;;;13.57;;
34876;SDS011;21086;44.780;17.194;2022-10-16T07:26:10;18.85;;;15.07;;
34876;SDS011;21086;44.780;17.194;2022-10-16T07:28:37;16.92;;;12.82;;
34876;SDS011;21086;44.780;17.194;2022-10-16T07:31:07;20.23;;;14.45;;
34876;SDS011;21086;44.780;17.194;2022-10-16T07:33:37;18.25;;;13.10;;
34876;SDS011;21086;44.780;17.194;2022-10-16T07:36:04;16.90;;;14.63;;
34876;SDS011;21086;44.780;17.194;2022-10-16T07:38:32;22.88;;;14.73;;
34876;SDS011;21086;44.780;17.194;2022-10-16T07:41:00;18.90;;;14.50;;
34876;SDS011;21086;44.780;17.194;2022-10-16T07:43:31;22.17;;;13.68;;
34876;SDS011;21086;44.780;17.194;2022-10-16T07:45:59;21.95;;;14.77;;
34876;SDS011;21086;44.780;17.194;2022-10-16T07:48:33;23.23;;;17.13;;
34876;SDS011;21086;44.780;17.194;2022-10-16T07:51:02;29.63;;;15.43;;
34876;SDS011;21086;44.780;17.194;2022-10-16T07:53:31;17.23;;;13.35;;
34876;SDS011;21086;44.780;17.194;2022-10-16T07:55:59;23.05;;;17.40;;
34876;SDS011;21086;44.780;17.194;2022-10-16T07:58:30;23.38;;;14.52;;
34876;SDS011;21086;44.780;17.194;2022-10-16T08:00:57;18.98;;;13.38;;
34876;SDS011;21086;44.780;17.194;2022-10-16T08:03:25;17.77;;;13.05;;
34876;SDS011;21086;44.780;17.194;2022-10-16T08:05:52;21.08;;;14.30;;
34876;SDS011;21086;44.780;17.194;2022-10-16T08:08:19;16.40;;;12.98;;
34876;SDS011;21086;44.780;17.194;2022-10-16T08:10:46;16.42;;;13.05;;
34876;SDS011;21086;44.780;17.194;2022-10-16T08:13:13;19.95;;;11.60;;
34876;SDS011;21086;44.780;17.194;2022-10-16T08:15:44;15.43;;;11.05;;
34876;SDS011;21086;44.780;17.194;2022-10-16T08:18:12;12.63;;;10.23;;
34876;SDS011;21086;44.780;17.194;2022-10-16T08:20:40;16.33;;;10.70;;
34876;SDS011;21086;44.780;17.194;2022-10-16T08:23:09;13.45;;;10.77;;
34876;SDS011;21086;44.780;17.194;2022-10-16T08:25:37;11.45;;;10.25;;
34876;SDS011;21086;44.780;17.194;2022-10-16T08:28:05;17.48;;;10.18;;
34876;SDS011;21086;44.780;17.194;2022-10-16T08:30:32;10.80;;;9.30;;
34876;SDS011;21086;44.780;17.194;2022-10-16T08:33:00;11.30;;;9.75;;
34876;SDS011;21086;44.780;17.194;2022-10-16T08:35:27;9.50;;;8.50;;
34876;SDS011;21086;44.780;17.194;2022-10-16T08:37:54;8.95;;;7.97;;
34876;SDS011;21086;44.780;17.194;2022-10-16T08:40:25;11.90;;;10.00;;
34876;SDS011;21086;44.780;17.194;2022-10-16T08:48:36;12.13;;;8.43;;
34876;SDS011;21086;44.780;17.194;2022-10-16T08:51:04;15.45;;;9.77;;
34876;SDS011;21086;44.780;17.194;2022-10-16T08:53:40;9.63;;;8.60;;
34876;SDS011;21086;44.780;17.194;2022-10-16T08:56:15;12.63;;;9.98;;
34876;SDS011;21086;44.780;17.194;2022-10-16T08:58:45;15.23;;;10.90;;
34876;SDS011;21086;44.780;17.194;2022-10-16T09:01:19;11.43;;;9.52;;
34876;SDS011;21086;44.780;17.194;2022-10-16T09:09:15;15.68;;;11.02;;
34876;SDS011;21086;44.780;17.194;2022-10-16T09:14:52;12.60;;;9.85;;
34876;SDS011;21086;44.780;17.194;2022-10-16T09:22:56;11.18;;;8.63;;
34876;SDS011;21086;44.780;17.194;2022-10-16T09:25:26;11.63;;;9.20;;
34876;SDS011;21086;44.780;17.194;2022-10-16T09:27:54;10.90;;;8.68;;
34876;SDS011;21086;44.780;17.194;2022-10-16T09:30:22;12.75;;;8.80;;
34876;SDS011;21086;44.780;17.194;2022-10-16T09:32:50;10.60;;;8.60;;
34876;SDS011;21086;44.780;17.194;2022-10-16T09:35:19;9.45;;;8.48;;
34876;SDS011;21086;44.780;17.194;2022-10-16T09:37:49;9.15;;;8.18;;
34876;SDS011;21086;44.780;17.194;2022-10-16T09:40:30;13.88;;;8.77;;
34876;SDS011;21086;44.780;17.194;2022-10-16T09:43:23;12.07;;;8.82;;
34876;SDS011;21086;44.780;17.194;2022-10-16T09:48:36;7.55;;;6.50;;
34876;SDS011;21086;44.780;17.194;2022-10-16T09:51:13;9.65;;;8.65;;
34876;SDS011;21086;44.780;17.194;2022-10-16T09:53:46;11.35;;;9.25;;
34876;SDS011;21086;44.780;17.194;2022-10-16T09:56:32;8.85;;;7.95;;
34876;SDS011;21086;44.780;17.194;2022-10-16T10:02:00;7.20;;;6.47;;
34876;SDS011;21086;44.780;17.194;2022-10-16T10:04:37;10.73;;;8.32;;
34876;SDS011;21086;44.780;17.194;2022-10-16T10:07:07;10.25;;;7.97;;
34876;SDS011;21086;44.780;17.194;2022-10-16T10:09:54;8.50;;;7.22;;
34876;SDS011;21086;44.780;17.194;2022-10-16T10:12:24;9.77;;;7.60;;
34876;SDS011;21086;44.780;17.194;2022-10-16T10:14:58;9.35;;;7.20;;
34876;SDS011;21086;44.780;17.194;2022-10-16T10:17:32;12.30;;;7.78;;
34876;SDS011;21086;44.780;17.194;2022-10-16T10:22:51;8.23;;;7.38;;
34876;SDS011;21086;44.780;17.194;2022-10-16T10:28:14;7.95;;;7.15;;
34876;SDS011;21086;44.780;17.194;2022-10-16T10:39:13;8.07;;;6.50;;
34876;SDS011;21086;44.780;17.194;2022-10-16T10:50:10;8.35;;;7.20;;
34876;SDS011;21086;44.780;17.194;2022-10-16T10:55:47;8.05;;;6.25;;
34876;SDS011;21086;44.780;17.194;2022-10-16T11:02:10;6.30;;;5.70;;
34876;SDS011;21086;44.780;17.194;2022-10-16T11:07:36;7.60;;;5.90;;
34876;SDS011;21086;44.780;17.194;2022-10-16T11:10:13;6.63;;;6.03;;
34876;SDS011;21086;44.780;17.194;2022-10-16T11:12:47;7.13;;;6.22;;
34876;SDS011;21086;44.780;17.194;2022-10-16T11:15:39;6.53;;;5.85;;
34876;SDS011;21086;44.780;17.194;2022-10-16T11:18:27;8.77;;;5.50;;
34876;SDS011;21086;44.780;17.194;2022-10-16T11:21:04;8.45;;;6.20;;
34876;SDS011;21086;44.780;17.194;2022-10-16T11:23:37;6.68;;;6.05;;
34876;SDS011;21086;44.780;17.194;2022-10-16T11:26:13;8.75;;;6.18;;
34876;SDS011;21086;44.780;17.194;2022-10-16T11:28:50;8.18;;;5.57;;
34876;SDS011;21086;44.780;17.194;2022-10-16T11:31:37;5.72;;;5.20;;
34876;SDS011;21086;44.780;17.194;2022-10-16T11:36:39;6.72;;;4.95;;
34876;SDS011;21086;44.780;17.194;2022-10-16T11:39:26;7.82;;;5.82;;
34876;SDS011;21086;44.780;17.194;2022-10-16T11:44:51;6.25;;;5.43;;
34876;SDS011;21086;44.780;17.194;2022-10-16T11:47:51;6.40;;;5.70;;
34876;SDS011;21086;44.780;17.194;2022-10-16T11:55:41;7.20;;;6.50;;
34876;SDS011;21086;44.780;17.194;2022-10-16T12:03:23;6.43;;;5.78;;
34876;SDS011;21086;44.780;17.194;2022-10-16T12:06:04;7.13;;;5.93;;
34876;SDS011;21086;44.780;17.194;2022-10-16T12:08:34;9.85;;;5.30;;
34876;SDS011;21086;44.780;17.194;2022-10-16T12:11:36;6.40;;;5.70;;
34876;SDS011;21086;44.780;17.194;2022-10-16T12:14:05;5.93;;;5.30;;
34876;SDS011;21086;44.780;17.194;2022-10-16T12:16:39;6.32;;;5.72;;
34876;SDS011;21086;44.780;17.194;2022-10-16T12:19:20;6.50;;;5.90;;
34876;SDS011;21086;44.780;17.194;2022-10-16T12:21:48;6.70;;;5.65;;
34876;SDS011;21086;44.780;17.194;2022-10-16T12:27:04;7.25;;;5.63;;
34876;SDS011;21086;44.780;17.194;2022-10-16T12:29:40;6.55;;;5.95;;
34876;SDS011;21086;44.780;17.194;2022-10-16T12:35:47;6.78;;;5.70;;
34876;SDS011;21086;44.780;17.194;2022-10-16T12:40:47;8.55;;;6.30;;
34876;SDS011;21086;44.780;17.194;2022-10-16T12:48:38;6.40;;;5.40;;
34876;SDS011;21086;44.780;17.194;2022-10-16T13:00:10;7.03;;;6.18;;
34876;SDS011;21086;44.780;17.194;2022-10-16T13:09:09;8.68;;;6.00;;
34876;SDS011;21086;44.780;17.194;2022-10-16T13:28:16;7.10;;;6.40;;
34876;SDS011;21086;44.780;17.194;2022-10-16T13:30:52;9.60;;;6.78;;
34876;SDS011;21086;44.780;17.194;2022-10-16T13:33:32;7.40;;;6.70;;
34876;SDS011;21086;44.780;17.194;2022-10-16T13:36:02;7.47;;;6.00;;
34876;SDS011;21086;44.780;17.194;2022-10-16T13:38:34;8.10;;;7.30;;
34876;SDS011;21086;44.780;17.194;2022-10-16T13:41:15;7.57;;;6.55;;
34876;SDS011;21086;44.780;17.194;2022-10-16T13:43:47;12.80;;;7.15;;
34876;SDS011;21086;44.780;17.194;2022-10-16T13:46:21;7.68;;;6.85;;
34876;SDS011;21086;44.780;17.194;2022-10-16T13:48:58;7.03;;;6.43;;
34876;SDS011;21086;44.780;17.194;2022-10-16T13:51:27;8.30;;;6.63;;
34876;SDS011;21086;44.780;17.194;2022-10-16T13:53:55;6.90;;;6.20;;
34876;SDS011;21086;44.780;17.194;2022-10-16T13:56:27;7.72;;;6.97;;
34876;SDS011;21086;44.780;17.194;2022-10-16T14:01:28;8.00;;;6.90;;
34876;SDS011;21086;44.780;17.194;2022-10-16T14:04:05;7.70;;;6.95;;
34876;SDS011;21086;44.780;17.194;2022-10-16T14:06:35;8.38;;;7.20;;
34876;SDS011;21086;44.780;17.194;2022-10-16T14:09:07;9.32;;;7.45;;
34876;SDS011;21086;44.780;17.194;2022-10-16T14:11:53;8.43;;;7.35;;
34876;SDS011;21086;44.780;17.194;2022-10-16T14:14:23;8.63;;;7.82;;
34876;SDS011;21086;44.780;17.194;2022-10-16T14:16:51;8.80;;;8.00;;
34876;SDS011;21086;44.780;17.194;2022-10-16T14:19:20;10.73;;;7.30;;
34876;SDS011;21086;44.780;17.194;2022-10-16T14:21:50;10.35;;;6.60;;
34876;SDS011;21086;44.780;17.194;2022-10-16T14:24:31;7.97;;;7.13;;
34876;SDS011;21086;44.780;17.194;2022-10-16T14:27:01;8.15;;;7.32;;
34876;SDS011;21086;44.780;17.194;2022-10-16T14:29:29;9.60;;;7.32;;
34876;SDS011;21086;44.780;17.194;2022-10-16T14:32:01;9.27;;;7.38;;
34876;SDS011;21086;44.780;17.194;2022-10-16T14:37:25;7.93;;;6.95;;
34876;SDS011;21086;44.780;17.194;2022-10-16T14:39:55;8.73;;;7.00;;
34876;SDS011;21086;44.780;17.194;2022-10-16T14:42:24;10.77;;;7.25;;
34876;SDS011;21086;44.780;17.194;2022-10-16T14:44:52;10.10;;;7.35;;
34876;SDS011;21086;44.780;17.194;2022-10-16T14:47:23;7.57;;;6.70;;
34876;SDS011;21086;44.780;17.194;2022-10-16T14:49:53;8.70;;;7.75;;
34876;SDS011;21086;44.780;17.194;2022-10-16T14:52:25;12.15;;;8.15;;
34876;SDS011;21086;44.780;17.194;2022-10-16T14:54:52;9.15;;;8.23;;
34876;SDS011;21086;44.780;17.194;2022-10-16T14:57:23;7.57;;;6.80;;
34876;SDS011;21086;44.780;17.194;2022-10-16T14:59:53;8.45;;;6.82;;
34876;SDS011;21086;44.780;17.194;2022-10-16T15:04:48;9.63;;;8.60;;
34876;SDS011;21086;44.780;17.194;2022-10-16T15:07:15;8.43;;;7.55;;
34876;SDS011;21086;44.780;17.194;2022-10-16T15:09:42;10.75;;;7.28;;
34876;SDS011;21086;44.780;17.194;2022-10-16T15:12:14;8.68;;;7.78;;
34876;SDS011;21086;44.780;17.194;2022-10-16T15:14:42;8.75;;;7.40;;
34876;SDS011;21086;44.780;17.194;2022-10-16T15:17:10;13.23;;;8.50;;
34876;SDS011;21086;44.780;17.194;2022-10-16T15:19:37;11.90;;;7.57;;
34876;SDS011;21086;44.780;17.194;2022-10-16T15:22:04;9.20;;;7.95;;
34876;SDS011;21086;44.780;17.194;2022-10-16T15:24:31;13.63;;;8.57;;
34876;SDS011;21086;44.780;17.194;2022-10-16T15:26:57;11.73;;;9.25;;
34876;SDS011;21086;44.780;17.194;2022-10-16T15:29:24;15.32;;;9.07;;
34876;SDS011;21086;44.780;17.194;2022-10-16T15:31:51;11.68;;;8.75;;
34876;SDS011;21086;44.780;17.194;2022-10-16T15:34:18;14.00;;;8.50;;
34876;SDS011;21086;44.780;17.194;2022-10-16T15:36:46;10.60;;;8.32;;
34876;SDS011;21086;44.780;17.194;2022-10-16T15:39:14;12.30;;;8.75;;
34876;SDS011;21086;44.780;17.194;2022-10-16T15:41:44;10.10;;;8.43;;
34876;SDS011;21086;44.780;17.194;2022-10-16T15:44:17;10.48;;;9.38;;
34876;SDS011;21086;44.780;17.194;2022-10-16T15:46:44;11.48;;;9.77;;
34876;SDS011;21086;44.780;17.194;2022-10-16T15:49:11;14.05;;;10.88;;
34876;SDS011;21086;44.780;17.194;2022-10-16T15:51:39;12.43;;;10.57;;
34876;SDS011;21086;44.780;17.194;2022-10-16T15:54:08;11.65;;;8.95;;
34876;SDS011;21086;44.780;17.194;2022-10-16T15:56:35;14.43;;;10.13;;
34876;SDS011;21086;44.780;17.194;2022-10-16T15:59:03;10.32;;;9.23;;
34876;SDS011;21086;44.780;17.194;2022-10-16T16:01:34;10.93;;;9.77;;
34876;SDS011;21086;44.780;17.194;2022-10-16T16:04:02;14.90;;;12.45;;
34876;SDS011;21086;44.780;17.194;2022-10-16T16:06:36;11.98;;;9.82;;
34876;SDS011;21086;44.780;17.194;2022-10-16T16:09:06;14.25;;;10.32;;
34876;SDS011;21086;44.780;17.194;2022-10-16T16:11:32;12.98;;;10.15;;
34876;SDS011;21086;44.780;17.194;2022-10-16T16:14:03;11.90;;;10.45;;
34876;SDS011;21086;44.780;17.194;2022-10-16T16:16:36;13.75;;;10.82;;
34876;SDS011;21086;44.780;17.194;2022-10-16T16:19:04;16.98;;;10.48;;
34876;SDS011;21086;44.780;17.194;2022-10-16T16:21:37;14.45;;;11.23;;
34876;SDS011;21086;44.780;17.194;2022-10-16T16:24:04;17.02;;;13.70;;
34876;SDS011;21086;44.780;17.194;2022-10-16T16:26:35;13.05;;;11.32;;
34876;SDS011;21086;44.780;17.194;2022-10-16T16:29:06;20.90;;;12.73;;
34876;SDS011;21086;44.780;17.194;2022-10-16T16:31:33;16.77;;;12.65;;
34876;SDS011;21086;44.780;17.194;2022-10-16T16:34:01;18.17;;;14.82;;
34876;SDS011;21086;44.780;17.194;2022-10-16T16:36:28;16.95;;;14.27;;
34876;SDS011;21086;44.780;17.194;2022-10-16T16:38:56;21.35;;;17.58;;
34876;SDS011;21086;44.780;17.194;2022-10-16T16:41:24;23.70;;;15.32;;
34876;SDS011;21086;44.780;17.194;2022-10-16T16:43:54;23.98;;;13.93;;
34876;SDS011;21086;44.780;17.194;2022-10-16T16:46:22;18.60;;;13.10;;
34876;SDS011;21086;44.780;17.194;2022-10-16T16:48:49;25.52;;;15.95;;
34876;SDS011;21086;44.780;17.194;2022-10-16T16:51:16;19.13;;;13.90;;
34876;SDS011;21086;44.780;17.194;2022-10-16T16:53:47;19.70;;;12.43;;
34876;SDS011;21086;44.780;17.194;2022-10-16T16:56:15;24.05;;;14.63;;
34876;SDS011;21086;44.780;17.194;2022-10-16T16:58:46;24.58;;;14.75;;
34876;SDS011;21086;44.780;17.194;2022-10-16T17:01:17;20.20;;;14.60;;
34876;SDS011;21086;44.780;17.194;2022-10-16T17:03:47;24.23;;;14.88;;
34876;SDS011;21086;44.780;17.194;2022-10-16T17:06:17;20.65;;;15.38;;
34876;SDS011;21086;44.780;17.194;2022-10-16T17:08:47;22.08;;;16.25;;